sensor_id;sensor_type;location;lat;lon;timestamp;pressure;altitude;pressure_sealevel;temperature;humidity
28181;BME280;15464;50.988;10.318;2022-12-18T00:01:37;100383.00;;;-9.45;97.96
28181;BME280;15464;50.988;10.318;2022-12-18T00:04:07;100379.50;;;-9.49;98.35
28181;BME280;15464;50.988;10.318;2022-12-18T00:06:35;100382.00;;;-9.53;98.47
28181;BME280;15464;50.988;10.318;2022-12-18T00:09:02;100383.75;;;-9.49;99.02
28181;BME280;15464;50.988;10.318;2022-12-18T00:11:36;100398.22;;;-9.54;99.13
28181;BME280;15464;50.988;10.318;2022-12-18T00:14:03;100391.31;;;-9.58;99.11
28181;BME280;15464;50.988;10.318;2022-12-18T00:16:29;100394.69;;;-9.61;98.70
28181;BME280;15464;50.988;10.318;2022-12-18T00:18:59;100389.66;;;-9.56;98.60
28181;BME280;15464;50.988;10.318;2022-12-18T00:21:28;100395.63;;;-9.57;98.36
28181;BME280;15464;50.988;10.318;2022-12-18T00:23:55;100404.03;;;-9.64;98.21
28181;BME280;15464;50.988;10.318;2022-12-18T00:26:25;100411.63;;;-9.70;97.28
28181;BME280;15464;50.988;10.318;2022-12-18T00:28:53;100411.53;;;-9.75;97.18
28181;BME280;15464;50.988;10.318;2022-12-18T00:31:23;100419.25;;;-9.73;96.83
28181;BME280;15464;50.988;10.318;2022-12-18T00:33:50;100420.81;;;-9.82;97.01
28181;BME280;15464;50.988;10.318;2022-12-18T00:36:23;100421.63;;;-9.84;97.54
28181;BME280;15464;50.988;10.318;2022-12-18T00:38:50;100422.41;;;-9.87;97.41
28181;BME280;15464;50.988;10.318;2022-12-18T00:41:17;100424.16;;;-9.86;97.32
28181;BME280;15464;50.988;10.318;2022-12-18T00:44:06;100407.84;;;-9.89;97.42
28181;BME280;15464;50.988;10.318;2022-12-18T00:46:33;100409.47;;;-9.94;97.43
28181;BME280;15464;50.988;10.318;2022-12-18T00:49:00;100411.19;;;-9.93;97.42
28181;BME280;15464;50.988;10.318;2022-12-18T00:51:27;100403.50;;;-9.92;97.55
28181;BME280;15464;50.988;10.318;2022-12-18T00:53:54;100416.28;;;-9.95;97.33
28181;BME280;15464;50.988;10.318;2022-12-18T00:56:20;100421.47;;;-9.93;97.85
28181;BME280;15464;50.988;10.318;2022-12-18T00:58:47;100424.09;;;-9.89;97.58
28181;BME280;15464;50.988;10.318;2022-12-18T01:01:14;100418.97;;;-9.89;98.10
28181;BME280;15464;50.988;10.318;2022-12-18T01:03:41;100426.66;;;-9.89;97.86
28181;BME280;15464;50.988;10.318;2022-12-18T01:06:10;100432.63;;;-9.90;97.92
28181;BME280;15464;50.988;10.318;2022-12-18T01:08:38;100422.13;;;-10.02;97.83
28181;BME280;15464;50.988;10.318;2022-12-18T01:11:13;100428.09;;;-10.03;98.02
28181;BME280;15464;50.988;10.318;2022-12-18T01:13:40;100429.88;;;-9.99;98.27
28181;BME280;15464;50.988;10.318;2022-12-18T01:16:07;100419.44;;;-10.08;98.50
28181;BME280;15464;50.988;10.318;2022-12-18T01:18:35;100421.91;;;-10.11;98.52
28181;BME280;15464;50.988;10.318;2022-12-18T01:21:09;100429.00;;;-10.01;98.59
28181;BME280;15464;50.988;10.318;2022-12-18T01:23:36;100435.91;;;-9.97;98.49
28181;BME280;15464;50.988;10.318;2022-12-18T01:26:13;100442.69;;;-9.99;97.93
28181;BME280;15464;50.988;10.318;2022-12-18T01:28:40;100452.97;;;-9.99;97.80
28181;BME280;15464;50.988;10.318;2022-12-18T01:31:15;100451.16;;;-10.03;97.76
28181;BME280;15464;50.988;10.318;2022-12-18T01:33:43;100447.66;;;-10.08;97.61
28181;BME280;15464;50.988;10.318;2022-12-18T01:36:19;100449.25;;;-10.13;97.14
28181;BME280;15464;50.988;10.318;2022-12-18T01:38:47;100453.53;;;-10.13;97.97
28181;BME280;15464;50.988;10.318;2022-12-18T01:41:16;100455.25;;;-10.11;98.00
28181;BME280;15464;50.988;10.318;2022-12-18T01:46:17;100448.38;;;-10.13;97.21
28181;BME280;15464;50.988;10.318;2022-12-18T01:48:50;100455.94;;;-10.21;96.93
28181;BME280;15464;50.988;10.318;2022-12-18T01:51:17;100455.81;;;-10.27;96.79
28181;BME280;15464;50.988;10.318;2022-12-18T01:53:45;100457.38;;;-10.34;96.51
28181;BME280;15464;50.988;10.318;2022-12-18T01:56:15;100455.69;;;-10.33;97.19
28181;BME280;15464;50.988;10.318;2022-12-18T01:58:55;100452.19;;;-10.35;97.18
28181;BME280;15464;50.988;10.318;2022-12-18T02:01:24;100453.03;;;-10.36;96.80
28181;BME280;15464;50.988;10.318;2022-12-18T02:03:52;100447.03;;;-10.38;97.29
28181;BME280;15464;50.988;10.318;2022-12-18T02:06:34;100453.88;;;-10.37;96.64
28181;BME280;15464;50.988;10.318;2022-12-18T02:09:15;100446.19;;;-10.37;96.77
28181;BME280;15464;50.988;10.318;2022-12-18T02:11:49;100448.75;;;-10.37;96.36
28181;BME280;15464;50.988;10.318;2022-12-18T02:14:33;100451.47;;;-10.69;96.48
28181;BME280;15464;50.988;10.318;2022-12-18T02:17:19;100449.03;;;-10.61;96.36
28181;BME280;15464;50.988;10.318;2022-12-18T02:27:59;100443.13;;;-10.58;95.56
28181;BME280;15464;50.988;10.318;2022-12-18T02:30:31;100437.91;;;-10.62;95.38
28181;BME280;15464;50.988;10.318;2022-12-18T02:33:02;100423.19;;;-10.72;95.41
28181;BME280;15464;50.988;10.318;2022-12-18T02:35:32;100420.69;;;-10.69;95.39
28181;BME280;15464;50.988;10.318;2022-12-18T02:38:01;100429.06;;;-10.76;94.56
28181;BME280;15464;50.988;10.318;2022-12-18T02:40:30;100439.19;;;-10.82;94.29
28181;BME280;15464;50.988;10.318;2022-12-18T02:43:12;100435.47;;;-10.93;93.94
28181;BME280;15464;50.988;10.318;2022-12-18T02:45:52;100441.41;;;-10.95;93.66
28181;BME280;15464;50.988;10.318;2022-12-18T02:48:30;100437.19;;;-10.93;94.40
28181;BME280;15464;50.988;10.318;2022-12-18T02:50:59;100446.63;;;-10.91;94.11
28181;BME280;15464;50.988;10.318;2022-12-18T02:53:36;100436.31;;;-10.94;93.75
28181;BME280;15464;50.988;10.318;2022-12-18T02:56:13;100433.63;;;-11.00;94.07
28181;BME280;15464;50.988;10.318;2022-12-18T03:01:33;100440.28;;;-11.05;93.92
28181;BME280;15464;50.988;10.318;2022-12-18T03:04:05;100441.84;;;-11.12;93.61
28181;BME280;15464;50.988;10.318;2022-12-18T03:06:46;100447.81;;;-11.13;94.21
28181;BME280;15464;50.988;10.318;2022-12-18T03:09:37;100450.38;;;-11.13;94.28
28181;BME280;15464;50.988;10.318;2022-12-18T03:12:19;100443.63;;;-11.09;94.38
28181;BME280;15464;50.988;10.318;2022-12-18T03:17:56;100443.47;;;-11.15;93.23
28181;BME280;15464;50.988;10.318;2022-12-18T03:20:27;100439.84;;;-11.23;92.97
28181;BME280;15464;50.988;10.318;2022-12-18T03:23:00;100437.06;;;-11.32;93.33
28181;BME280;15464;50.988;10.318;2022-12-18T03:25:30;100437.72;;;-11.39;93.43
28181;BME280;15464;50.988;10.318;2022-12-18T03:28:00;100441.03;;;-11.44;93.89
28181;BME280;15464;50.988;10.318;2022-12-18T03:30:30;100443.56;;;-11.45;94.78
28181;BME280;15464;50.988;10.318;2022-12-18T03:35:38;100445.31;;;-11.43;95.05
28181;BME280;15464;50.988;10.318;2022-12-18T03:38:07;100443.50;;;-11.47;95.14
28181;BME280;15464;50.988;10.318;2022-12-18T03:45:55;100447.22;;;-11.67;94.64
28181;BME280;15464;50.988;10.318;2022-12-18T03:48:37;100442.34;;;-11.58;94.62
28181;BME280;15464;50.988;10.318;2022-12-18T03:51:09;100442.31;;;-11.59;94.43
28181;BME280;15464;50.988;10.318;2022-12-18T03:54:01;100438.16;;;-11.54;94.46
28181;BME280;15464;50.988;10.318;2022-12-18T03:56:31;100427.06;;;-11.56;94.57
28181;BME280;15464;50.988;10.318;2022-12-18T03:59:02;100428.75;;;-11.57;94.13
28181;BME280;15464;50.988;10.318;2022-12-18T04:01:34;100422.66;;;-11.60;94.11
28181;BME280;15464;50.988;10.318;2022-12-18T04:04:04;100423.47;;;-11.63;93.96
28181;BME280;15464;50.988;10.318;2022-12-18T04:06:35;100417.44;;;-11.65;93.49
28181;BME280;15464;50.988;10.318;2022-12-18T04:09:03;100424.88;;;-11.74;93.36
28181;BME280;15464;50.988;10.318;2022-12-18T04:11:31;100425.69;;;-11.76;93.23
28181;BME280;15464;50.988;10.318;2022-12-18T04:13:58;100435.69;;;-11.84;93.05
28181;BME280;15464;50.988;10.318;2022-12-18T04:16:28;100436.28;;;-11.94;93.17
28181;BME280;15464;50.988;10.318;2022-12-18T04:18:55;100426.97;;;-11.91;93.38
28181;BME280;15464;50.988;10.318;2022-12-18T04:21:21;100434.44;;;-11.98;93.32
28181;BME280;15464;50.988;10.318;2022-12-18T04:23:49;100430.81;;;-12.06;93.37
28181;BME280;15464;50.988;10.318;2022-12-18T04:26:16;100441.38;;;-11.94;94.07
28181;BME280;15464;50.988;10.318;2022-12-18T04:28:42;100437.25;;;-11.89;94.37
28181;BME280;15464;50.988;10.318;2022-12-18T04:31:09;100437.31;;;-11.88;94.15
28181;BME280;15464;50.988;10.318;2022-12-18T04:33:36;100440.69;;;-11.89;94.22
28181;BME280;15464;50.988;10.318;2022-12-18T04:36:03;100444.75;;;-11.95;94.49
28181;BME280;15464;50.988;10.318;2022-12-18T04:38:30;100447.44;;;-11.91;94.23
28181;BME280;15464;50.988;10.318;2022-12-18T04:40:56;100454.28;;;-11.90;94.02
28181;BME280;15464;50.988;10.318;2022-12-18T04:43:23;100454.34;;;-11.88;93.91
28181;BME280;15464;50.988;10.318;2022-12-18T04:45:50;100453.34;;;-11.93;93.68
28181;BME280;15464;50.988;10.318;2022-12-18T04:48:16;100446.50;;;-11.94;93.42
28181;BME280;15464;50.988;10.318;2022-12-18T04:50:43;100448.88;;;-12.00;93.04
28181;BME280;15464;50.988;10.318;2022-12-18T04:53:10;100443.66;;;-12.03;93.43
28181;BME280;15464;50.988;10.318;2022-12-18T04:55:36;100445.34;;;-12.04;93.24
28181;BME280;15464;50.988;10.318;2022-12-18T04:58:04;100453.66;;;-12.12;92.90
28181;BME280;15464;50.988;10.318;2022-12-18T05:00:30;100460.53;;;-12.10;93.14
28181;BME280;15464;50.988;10.318;2022-12-18T05:02:57;100456.28;;;-12.09;92.90
28181;BME280;15464;50.988;10.318;2022-12-18T05:05:24;100451.97;;;-12.12;92.81
28181;BME280;15464;50.988;10.318;2022-12-18T05:07:50;100456.22;;;-12.12;92.54
28181;BME280;15464;50.988;10.318;2022-12-18T05:10:17;100459.56;;;-12.13;92.81
28181;BME280;15464;50.988;10.318;2022-12-18T05:12:44;100469.75;;;-12.15;92.56
28181;BME280;15464;50.988;10.318;2022-12-18T05:15:30;100467.88;;;-12.20;92.57
28181;BME280;15464;50.988;10.318;2022-12-18T05:17:57;100467.75;;;-12.25;92.22
28181;BME280;15464;50.988;10.318;2022-12-18T05:20:26;100467.78;;;-12.23;92.25
28181;BME280;15464;50.988;10.318;2022-12-18T05:22:53;100470.22;;;-12.28;92.37
28181;BME280;15464;50.988;10.318;2022-12-18T05:25:20;100475.81;;;-12.40;92.38
28181;BME280;15464;50.988;10.318;2022-12-18T05:27:47;100473.25;;;-12.40;92.17
28181;BME280;15464;50.988;10.318;2022-12-18T05:30:15;100475.63;;;-12.46;92.15
28181;BME280;15464;50.988;10.318;2022-12-18T05:32:42;100466.22;;;-12.47;92.11
28181;BME280;15464;50.988;10.318;2022-12-18T05:35:10;100465.31;;;-12.49;92.12
28181;BME280;15464;50.988;10.318;2022-12-18T05:37:37;100464.41;;;-12.51;91.91
28181;BME280;15464;50.988;10.318;2022-12-18T05:40:09;100476.00;;;-12.60;91.63
28181;BME280;15464;50.988;10.318;2022-12-18T05:42:36;100478.53;;;-12.62;91.74
28181;BME280;15464;50.988;10.318;2022-12-18T05:45:04;100485.22;;;-12.66;91.47
28181;BME280;15464;50.988;10.318;2022-12-18T05:47:31;100492.03;;;-12.66;91.76
28181;BME280;15464;50.988;10.318;2022-12-18T05:49:58;100493.75;;;-12.65;91.57
28181;BME280;15464;50.988;10.318;2022-12-18T05:52:24;100492.44;;;-12.79;90.98
28181;BME280;15464;50.988;10.318;2022-12-18T05:54:51;100482.97;;;-12.83;90.92
28181;BME280;15464;50.988;10.318;2022-12-18T05:57:18;100483.16;;;-12.77;91.33
28181;BME280;15464;50.988;10.318;2022-12-18T05:59:44;100472.06;;;-12.78;91.24
28181;BME280;15464;50.988;10.318;2022-12-18T06:02:11;100489.13;;;-12.77;91.42
28181;BME280;15464;50.988;10.318;2022-12-18T06:04:38;100480.53;;;-12.79;91.70
28181;BME280;15464;50.988;10.318;2022-12-18T06:07:05;100481.22;;;-12.84;91.41
28181;BME280;15464;50.988;10.318;2022-12-18T06:09:31;100476.84;;;-12.88;91.24
28181;BME280;15464;50.988;10.318;2022-12-18T06:11:58;100485.41;;;-12.86;91.73
28181;BME280;15464;50.988;10.318;2022-12-18T06:14:25;100482.84;;;-12.86;91.62
28181;BME280;15464;50.988;10.318;2022-12-18T06:16:52;100488.69;;;-12.90;91.51
28181;BME280;15464;50.988;10.318;2022-12-18T06:19:18;100486.03;;;-12.93;91.57
28181;BME280;15464;50.988;10.318;2022-12-18T06:21:45;100481.81;;;-12.93;91.88
28181;BME280;15464;50.988;10.318;2022-12-18T06:24:12;100478.19;;;-12.99;91.27
28181;BME280;15464;50.988;10.318;2022-12-18T06:26:39;100483.28;;;-12.99;91.38
28181;BME280;15464;50.988;10.318;2022-12-18T06:29:06;100473.97;;;-12.97;91.55
28181;BME280;15464;50.988;10.318;2022-12-18T06:31:32;100476.53;;;-12.97;91.98
28181;BME280;15464;50.988;10.318;2022-12-18T06:34:02;100474.78;;;-12.98;91.33
28181;BME280;15464;50.988;10.318;2022-12-18T06:36:30;100468.78;;;-13.00;91.43
28181;BME280;15464;50.988;10.318;2022-12-18T06:38:58;100467.84;;;-13.02;91.72
28181;BME280;15464;50.988;10.318;2022-12-18T06:41:25;100467.03;;;-13.01;91.76
28181;BME280;15464;50.988;10.318;2022-12-18T06:43:51;100471.16;;;-13.05;90.90
28181;BME280;15464;50.988;10.318;2022-12-18T06:46:25;100471.94;;;-13.08;90.93
28181;BME280;15464;50.988;10.318;2022-12-18T06:48:52;100470.22;;;-13.09;90.87
28181;BME280;15464;50.988;10.318;2022-12-18T06:51:23;100471.59;;;-13.20;90.69
28181;BME280;15464;50.988;10.318;2022-12-18T06:53:50;100475.00;;;-13.19;90.60
28181;BME280;15464;50.988;10.318;2022-12-18T06:56:17;100485.03;;;-13.24;90.44
28181;BME280;15464;50.988;10.318;2022-12-18T06:58:43;100483.13;;;-13.31;90.39
28181;BME280;15464;50.988;10.318;2022-12-18T07:01:11;100478.81;;;-13.32;90.96
28181;BME280;15464;50.988;10.318;2022-12-18T07:03:39;100487.50;;;-13.27;91.72
28181;BME280;15464;50.988;10.318;2022-12-18T07:06:14;100485.88;;;-13.25;92.00
28181;BME280;15464;50.988;10.318;2022-12-18T07:08:41;100490.81;;;-13.29;92.07
28181;BME280;15464;50.988;10.318;2022-12-18T07:11:08;100494.34;;;-13.26;92.51
28181;BME280;15464;50.988;10.318;2022-12-18T07:13:35;100501.88;;;-13.29;92.64
28181;BME280;15464;50.988;10.318;2022-12-18T07:16:16;100505.44;;;-13.24;92.64
28181;BME280;15464;50.988;10.318;2022-12-18T07:18:50;100512.97;;;-13.28;92.94
28181;BME280;15464;50.988;10.318;2022-12-18T07:21:18;100518.00;;;-13.30;92.70
28181;BME280;15464;50.988;10.318;2022-12-18T07:23:45;100522.22;;;-13.32;92.96
28181;BME280;15464;50.988;10.318;2022-12-18T07:26:17;100528.22;;;-13.30;92.16
28181;BME280;15464;50.988;10.318;2022-12-18T07:28:43;100536.72;;;-13.31;92.42
28181;BME280;15464;50.988;10.318;2022-12-18T07:31:13;100527.09;;;-13.38;91.93
28181;BME280;15464;50.988;10.318;2022-12-18T07:33:40;100530.53;;;-13.36;92.08
28181;BME280;15464;50.988;10.318;2022-12-18T07:36:08;100528.19;;;-13.31;92.25
28181;BME280;15464;50.988;10.318;2022-12-18T07:38:36;100535.88;;;-13.30;92.15
28181;BME280;15464;50.988;10.318;2022-12-18T07:41:05;100540.88;;;-13.33;91.53
28181;BME280;15464;50.988;10.318;2022-12-18T07:43:33;100554.34;;;-13.37;92.15
28181;BME280;15464;50.988;10.318;2022-12-18T07:46:00;100551.16;;;-13.30;92.31
28181;BME280;15464;50.988;10.318;2022-12-18T07:48:28;100551.34;;;-13.25;92.50
28181;BME280;15464;50.988;10.318;2022-12-18T07:51:00;100558.09;;;-13.27;93.15
28181;BME280;15464;50.988;10.318;2022-12-18T07:53:27;100552.22;;;-13.25;93.30
28181;BME280;15464;50.988;10.318;2022-12-18T07:55:57;100556.63;;;-13.21;93.79
28181;BME280;15464;50.988;10.318;2022-12-18T07:58:44;100553.47;;;-13.14;94.02
28181;BME280;15464;50.988;10.318;2022-12-18T08:01:14;100556.06;;;-13.11;93.91
28181;BME280;15464;50.988;10.318;2022-12-18T08:03:41;100562.22;;;-13.05;93.76
28181;BME280;15464;50.988;10.318;2022-12-18T08:06:09;100566.69;;;-12.98;94.17
28181;BME280;15464;50.988;10.318;2022-12-18T08:08:36;100569.38;;;-12.95;93.71
28181;BME280;15464;50.988;10.318;2022-12-18T08:11:03;100564.22;;;-12.97;93.36
28181;BME280;15464;50.988;10.318;2022-12-18T08:13:30;100566.69;;;-13.00;93.05
28181;BME280;15464;50.988;10.318;2022-12-18T08:16:03;100552.84;;;-13.05;92.63
28181;BME280;15464;50.988;10.318;2022-12-18T08:18:32;100557.34;;;-12.99;93.31
28181;BME280;15464;50.988;10.318;2022-12-18T08:21:12;100548.94;;;-12.95;93.17
28181;BME280;15464;50.988;10.318;2022-12-18T08:23:39;100545.78;;;-12.88;93.29
28181;BME280;15464;50.988;10.318;2022-12-18T08:26:10;100544.03;;;-12.89;93.05
28181;BME280;15464;50.988;10.318;2022-12-18T08:28:37;100537.31;;;-12.87;94.06
28181;BME280;15464;50.988;10.318;2022-12-18T08:31:04;100533.91;;;-12.86;94.10
28181;BME280;15464;50.988;10.318;2022-12-18T08:33:32;100530.66;;;-12.82;94.74
28181;BME280;15464;50.988;10.318;2022-12-18T08:35:59;100527.31;;;-12.80;95.69
28181;BME280;15464;50.988;10.318;2022-12-18T08:38:26;100522.47;;;-12.72;96.33
28181;BME280;15464;50.988;10.318;2022-12-18T08:43:26;100519.50;;;-12.59;95.99
28181;BME280;15464;50.988;10.318;2022-12-18T08:46:19;100523.06;;;-12.54;96.08
28181;BME280;15464;50.988;10.318;2022-12-18T08:48:47;100532.34;;;-12.57;95.97
28181;BME280;15464;50.988;10.318;2022-12-18T08:51:16;100530.72;;;-12.54;95.70
28181;BME280;15464;50.988;10.318;2022-12-18T08:53:43;100520.69;;;-12.49;95.93
28181;BME280;15464;50.988;10.318;2022-12-18T08:56:14;100518.44;;;-12.39;96.65
28181;BME280;15464;50.988;10.318;2022-12-18T08:58:41;100516.22;;;-12.28;97.12
28181;BME280;15464;50.988;10.318;2022-12-18T09:01:09;100515.53;;;-12.22;96.80
28181;BME280;15464;50.988;10.318;2022-12-18T09:03:37;100507.16;;;-12.18;96.93
28181;BME280;15464;50.988;10.318;2022-12-18T09:06:05;100502.22;;;-12.12;96.31
28181;BME280;15464;50.988;10.318;2022-12-18T09:08:32;100501.63;;;-12.04;96.57
28181;BME280;15464;50.988;10.318;2022-12-18T09:11:03;100495.97;;;-11.92;96.55
28181;BME280;15464;50.988;10.318;2022-12-18T09:13:30;100500.38;;;-11.88;96.48
28181;BME280;15464;50.988;10.318;2022-12-18T09:15:57;100498.00;;;-11.82;96.66
28181;BME280;15464;50.988;10.318;2022-12-18T09:18:24;100495.63;;;-11.76;96.60
28181;BME280;15464;50.988;10.318;2022-12-18T09:20:51;100491.53;;;-11.68;97.03
28181;BME280;15464;50.988;10.318;2022-12-18T09:23:20;100480.69;;;-11.59;97.45
28181;BME280;15464;50.988;10.318;2022-12-18T09:25:47;100481.72;;;-11.53;97.73
28181;BME280;15464;50.988;10.318;2022-12-18T09:28:16;100479.44;;;-11.44;98.23
28181;BME280;15464;50.988;10.318;2022-12-18T09:30:48;100477.03;;;-11.37;98.13
28181;BME280;15464;50.988;10.318;2022-12-18T09:33:16;100473.78;;;-11.32;98.49
28181;BME280;15464;50.988;10.318;2022-12-18T09:35:44;100470.41;;;-11.29;97.60
28181;BME280;15464;50.988;10.318;2022-12-18T09:38:14;100471.38;;;-11.26;97.34
28181;BME280;15464;50.988;10.318;2022-12-18T09:40:43;100464.72;;;-11.19;97.47
28181;BME280;15464;50.988;10.318;2022-12-18T09:43:20;100477.88;;;-11.04;98.71
28181;BME280;15464;50.988;10.318;2022-12-18T09:45:52;100471.38;;;-10.91;99.36
28181;BME280;15464;50.988;10.318;2022-12-18T09:48:34;100466.66;;;-10.76;99.56
28181;BME280;15464;50.988;10.318;2022-12-18T09:51:09;100460.94;;;-10.65;99.43
28181;BME280;15464;50.988;10.318;2022-12-18T09:53:41;100465.44;;;-10.54;99.69
28181;BME280;15464;50.988;10.318;2022-12-18T09:56:25;100457.97;;;-10.45;99.62
28181;BME280;15464;50.988;10.318;2022-12-18T09:59:02;100452.19;;;-10.35;99.83
28181;BME280;15464;50.988;10.318;2022-12-18T10:01:31;100454.22;;;-10.22;100.00
28181;BME280;15464;50.988;10.318;2022-12-18T10:04:10;100451.00;;;-10.12;100.00
28181;BME280;15464;50.988;10.318;2022-12-18T10:09:30;100453.03;;;-9.96;100.00
28181;BME280;15464;50.988;10.318;2022-12-18T10:12:21;100455.81;;;-9.85;100.00
28181;BME280;15464;50.988;10.318;2022-12-18T10:15:00;100456.88;;;-9.75;100.00
28181;BME280;15464;50.988;10.318;2022-12-18T10:20:34;100452.63;;;-9.73;99.16
28181;BME280;15464;50.988;10.318;2022-12-18T10:23:29;100445.88;;;-9.70;99.10
28181;BME280;15464;50.988;10.318;2022-12-18T10:28:26;100464.09;;;-9.56;99.54
28181;BME280;15464;50.988;10.318;2022-12-18T10:30:55;100463.31;;;-9.52;99.55
28181;BME280;15464;50.988;10.318;2022-12-18T10:33:24;100452.25;;;-9.48;99.34
28181;BME280;15464;50.988;10.318;2022-12-18T10:35:54;100459.31;;;-9.38;99.47
28181;BME280;15464;50.988;10.318;2022-12-18T10:38:22;100452.56;;;-9.33;99.35
28181;BME280;15464;50.988;10.318;2022-12-18T10:41:00;100441.50;;;-9.29;99.18
28181;BME280;15464;50.988;10.318;2022-12-18T10:43:38;100433.09;;;-9.20;99.83
28181;BME280;15464;50.988;10.318;2022-12-18T10:51:26;100425.06;;;-8.89;100.00
28181;BME280;15464;50.988;10.318;2022-12-18T10:54:18;100426.13;;;-8.76;100.00
28181;BME280;15464;50.988;10.318;2022-12-18T10:56:46;100431.44;;;-8.64;100.00
28181;BME280;15464;50.988;10.318;2022-12-18T10:59:15;100429.03;;;-8.53;100.00
28181;BME280;15464;50.988;10.318;2022-12-18T11:01:52;100431.75;;;-8.43;100.00
28181;BME280;15464;50.988;10.318;2022-12-18T11:04:23;100441.28;;;-8.36;100.00
28181;BME280;15464;50.988;10.318;2022-12-18T11:06:54;100447.38;;;-8.28;100.00
28181;BME280;15464;50.988;10.318;2022-12-18T11:09:27;100448.34;;;-8.21;100.00
28181;BME280;15464;50.988;10.318;2022-12-18T11:11:56;100446.72;;;-8.15;100.00
28181;BME280;15464;50.988;10.318;2022-12-18T11:14:32;100445.06;;;-8.09;100.00
28181;BME280;15464;50.988;10.318;2022-12-18T11:17:00;100446.91;;;-8.01;100.00
28181;BME280;15464;50.988;10.318;2022-12-18T11:19:56;100438.44;;;-7.91;100.00
28181;BME280;15464;50.988;10.318;2022-12-18T11:22:34;100427.41;;;-7.81;100.00
28181;BME280;15464;50.988;10.318;2022-12-18T11:25:05;100425.84;;;-7.68;99.79
28181;BME280;15464;50.988;10.318;2022-12-18T11:27:55;100411.38;;;-7.57;99.53
28181;BME280;15464;50.988;10.318;2022-12-18T11:30:35;100403.75;;;-7.46;99.41
28181;BME280;15464;50.988;10.318;2022-12-18T11:35:49;100391.09;;;-7.25;100.00
28181;BME280;15464;50.988;10.318;2022-12-18T11:38:33;100381.72;;;-7.15;100.00
28181;BME280;15464;50.988;10.318;2022-12-18T11:43:47;100369.84;;;-7.00;100.00
28181;BME280;15464;50.988;10.318;2022-12-18T11:46:39;100358.75;;;-6.85;100.00
28181;BME280;15464;50.988;10.318;2022-12-18T11:49:33;100356.28;;;-6.70;100.00
28181;BME280;15464;50.988;10.318;2022-12-18T11:52:16;100343.41;;;-6.65;100.00
28181;BME280;15464;50.988;10.318;2022-12-18T11:54:45;100340.84;;;-6.61;100.00
28181;BME280;15464;50.988;10.318;2022-12-18T12:00:11;100356.41;;;-6.48;100.00
28181;BME280;15464;50.988;10.318;2022-12-18T12:16:52;100350.56;;;-6.09;100.00
28181;BME280;15464;50.988;10.318;2022-12-18T12:19:43;100343.72;;;-6.03;100.00
28181;BME280;15464;50.988;10.318;2022-12-18T12:34:01;100326.56;;;-5.71;96.35
28181;BME280;15464;50.988;10.318;2022-12-18T12:39:36;100312.81;;;-5.53;95.10
28181;BME280;15464;50.988;10.318;2022-12-18T12:42:18;100309.34;;;-5.55;93.94
28181;BME280;15464;50.988;10.318;2022-12-18T12:45:05;100306.78;;;-5.62;93.72
28181;BME280;15464;50.988;10.318;2022-12-18T12:47:38;100303.34;;;-5.45;93.55
28181;BME280;15464;50.988;10.318;2022-12-18T12:50:16;100301.59;;;-5.31;93.18
28181;BME280;15464;50.988;10.318;2022-12-18T12:52:46;100302.50;;;-5.19;92.85
28181;BME280;15464;50.988;10.318;2022-12-18T12:55:19;100299.03;;;-5.14;94.47
28181;BME280;15464;50.988;10.318;2022-12-18T13:03:38;100289.53;;;-5.06;94.86
28181;BME280;15464;50.988;10.318;2022-12-18T13:06:23;100285.25;;;-5.14;91.62
28181;BME280;15464;50.988;10.318;2022-12-18T13:08:59;100287.81;;;-5.16;92.22
28181;BME280;15464;50.988;10.318;2022-12-18T13:11:41;100275.75;;;-5.17;91.34
28181;BME280;15464;50.988;10.318;2022-12-18T13:14:35;100257.66;;;-5.29;93.01
28181;BME280;15464;50.988;10.318;2022-12-18T13:17:24;100266.28;;;-5.19;94.26
28181;BME280;15464;50.988;10.318;2022-12-18T13:20:12;100257.69;;;-5.26;94.53
28181;BME280;15464;50.988;10.318;2022-12-18T13:22:45;100257.69;;;-5.18;94.92
28181;BME280;15464;50.988;10.318;2022-12-18T13:25:33;100261.06;;;-5.06;93.72
28181;BME280;15464;50.988;10.318;2022-12-18T13:40:55;100267.13;;;-5.10;92.01
28181;BME280;15464;50.988;10.318;2022-12-18T13:43:27;100268.00;;;-5.08;92.90
28181;BME280;15464;50.988;10.318;2022-12-18T13:46:49;100261.97;;;-5.16;92.76
28181;BME280;15464;50.988;10.318;2022-12-18T13:49:00;100255.09;;;-5.20;91.25
28181;BME280;15464;50.988;10.318;2022-12-18T13:51:27;100255.09;;;-5.20;91.06
28181;BME280;15464;50.988;10.318;2022-12-18T13:53:58;100259.38;;;-5.22;90.75
28181;BME280;15464;50.988;10.318;2022-12-18T13:56:31;100258.53;;;-5.15;90.20
28181;BME280;15464;50.988;10.318;2022-12-18T13:59:21;100266.28;;;-5.19;89.85
28181;BME280;15464;50.988;10.318;2022-12-18T14:01:51;100270.59;;;-5.20;88.82
28181;BME280;15464;50.988;10.318;2022-12-18T14:04:30;100270.59;;;-5.29;88.65
28181;BME280;15464;50.988;10.318;2022-12-18T14:07:10;100275.75;;;-5.29;89.84
28181;BME280;15464;50.988;10.318;2022-12-18T14:09:43;100274.03;;;-5.33;90.53
28181;BME280;15464;50.988;10.318;2022-12-18T14:12:25;100288.69;;;-5.34;91.12
28181;BME280;15464;50.988;10.318;2022-12-18T14:17:58;100301.63;;;-5.38;91.58
28181;BME280;15464;50.988;10.318;2022-12-18T14:20:29;100294.72;;;-5.36;91.86
28181;BME280;15464;50.988;10.318;2022-12-18T14:22:58;100290.41;;;-5.37;92.32
28181;BME280;15464;50.988;10.318;2022-12-18T14:25:28;100281.81;;;-5.33;92.52
28181;BME280;15464;50.988;10.318;2022-12-18T14:28:10;100286.09;;;-5.35;92.23
28181;BME280;15464;50.988;10.318;2022-12-18T14:30:40;100284.38;;;-5.42;92.42
28181;BME280;15464;50.988;10.318;2022-12-18T14:33:12;100280.94;;;-5.41;92.73
28181;BME280;15464;50.988;10.318;2022-12-18T14:35:43;100275.75;;;-5.41;92.97